sensor_id;sensor_type;location;lat;lon;timestamp;P1;durP1;ratioP1;P2;durP2;ratioP2
28447;SDS011;15675;52.870;-1.416;2023-02-28T00:00:45;27.10;;;13.30;;
28447;SDS011;15675;52.870;-1.416;2023-02-28T00:03:11;25.40;;;14.60;;
28447;SDS011;15675;52.870;-1.416;2023-02-28T00:05:37;23.83;;;11.45;;
28447;SDS011;15675;52.870;-1.416;2023-02-28T00:08:03;21.80;;;13.15;;
28447;SDS011;15675;52.870;-1.416;2023-02-28T00:10:29;20.95;;;12.60;;
28447;SDS011;15675;52.870;-1.416;2023-02-28T00:12:58;24.90;;;12.57;;
28447;SDS011;15675;52.870;-1.416;2023-02-28T00:15:25;24.58;;;13.02;;
28447;SDS011;15675;52.870;-1.416;2023-02-28T00:17:51;22.90;;;13.20;;
28447;SDS011;15675;52.870;-1.416;2023-02-28T00:20:17;22.65;;;13.40;;
28447;SDS011;15675;52.870;-1.416;2023-02-28T00:22:45;24.77;;;14.57;;
28447;SDS011;15675;52.870;-1.416;2023-02-28T00:25:13;20.88;;;12.73;;
28447;SDS011;15675;52.870;-1.416;2023-02-28T00:27:41;22.70;;;13.07;;
28447;SDS011;15675;52.870;-1.416;2023-02-28T00:30:08;22.25;;;12.88;;
28447;SDS011;15675;52.870;-1.416;2023-02-28T00:32:40;18.60;;;10.63;;
28447;SDS011;15675;52.870;-1.416;2023-02-28T00:35:06;13.93;;;8.10;;
28447;SDS011;15675;52.870;-1.416;2023-02-28T00:37:34;17.35;;;8.57;;
28447;SDS011;15675;52.870;-1.416;2023-02-28T00:40:00;15.77;;;8.13;;
28447;SDS011;15675;52.870;-1.416;2023-02-28T00:42:26;15.85;;;7.65;;
28447;SDS011;15675;52.870;-1.416;2023-02-28T00:44:51;13.25;;;8.63;;
28447;SDS011;15675;52.870;-1.416;2023-02-28T00:47:17;14.90;;;7.63;;
28447;SDS011;15675;52.870;-1.416;2023-02-28T00:49:43;11.75;;;6.88;;
28447;SDS011;15675;52.870;-1.416;2023-02-28T00:52:09;12.32;;;7.07;;
28447;SDS011;15675;52.870;-1.416;2023-02-28T00:54:34;13.85;;;7.63;;
28447;SDS011;15675;52.870;-1.416;2023-02-28T00:57:00;13.02;;;7.65;;
28447;SDS011;15675;52.870;-1.416;2023-02-28T00:59:26;12.40;;;7.15;;
28447;SDS011;15675;52.870;-1.416;2023-02-28T01:01:52;16.50;;;7.68;;
28447;SDS011;15675;52.870;-1.416;2023-02-28T01:04:17;13.23;;;7.38;;
28447;SDS011;15675;52.870;-1.416;2023-02-28T01:06:43;15.57;;;7.53;;
28447;SDS011;15675;52.870;-1.416;2023-02-28T01:09:08;11.82;;;7.72;;
28447;SDS011;15675;52.870;-1.416;2023-02-28T01:11:34;16.02;;;8.32;;
28447;SDS011;15675;52.870;-1.416;2023-02-28T01:14:00;12.60;;;7.45;;
28447;SDS011;15675;52.870;-1.416;2023-02-28T01:16:27;15.13;;;7.55;;
28447;SDS011;15675;52.870;-1.416;2023-02-28T01:18:53;10.50;;;7.10;;
28447;SDS011;15675;52.870;-1.416;2023-02-28T01:21:20;16.98;;;8.73;;
28447;SDS011;15675;52.870;-1.416;2023-02-28T01:23:46;15.15;;;7.95;;
28447;SDS011;15675;52.870;-1.416;2023-02-28T01:26:19;14.35;;;7.60;;
28447;SDS011;15675;52.870;-1.416;2023-02-28T01:28:46;14.90;;;8.65;;
28447;SDS011;15675;52.870;-1.416;2023-02-28T01:31:12;13.98;;;8.07;;
28447;SDS011;15675;52.870;-1.416;2023-02-28T01:33:38;17.08;;;8.68;;
28447;SDS011;15675;52.870;-1.416;2023-02-28T01:36:05;17.42;;;8.90;;
28447;SDS011;15675;52.870;-1.416;2023-02-28T01:38:35;19.98;;;9.60;;
28447;SDS011;15675;52.870;-1.416;2023-02-28T01:41:01;22.35;;;10.23;;
28447;SDS011;15675;52.870;-1.416;2023-02-28T01:43:32;16.10;;;10.55;;
28447;SDS011;15675;52.870;-1.416;2023-02-28T01:46:17;17.45;;;10.23;;
28447;SDS011;15675;52.870;-1.416;2023-02-28T01:49:00;18.85;;;10.07;;
28447;SDS011;15675;52.870;-1.416;2023-02-28T01:51:32;18.75;;;10.90;;
28447;SDS011;15675;52.870;-1.416;2023-02-28T01:54:11;16.75;;;10.00;;
28447;SDS011;15675;52.870;-1.416;2023-02-28T01:56:45;17.65;;;11.18;;
28447;SDS011;15675;52.870;-1.416;2023-02-28T01:59:18;22.60;;;11.63;;
28447;SDS011;15675;52.870;-1.416;2023-02-28T02:01:50;21.98;;;11.02;;
28447;SDS011;15675;52.870;-1.416;2023-02-28T02:04:16;20.63;;;11.05;;
28447;SDS011;15675;52.870;-1.416;2023-02-28T02:06:42;23.52;;;11.70;;
28447;SDS011;15675;52.870;-1.416;2023-02-28T02:09:11;22.20;;;12.27;;
28447;SDS011;15675;52.870;-1.416;2023-02-28T02:11:37;20.20;;;11.10;;
28447;SDS011;15675;52.870;-1.416;2023-02-28T02:14:10;25.50;;;13.15;;
28447;SDS011;15675;52.870;-1.416;2023-02-28T02:19:56;27.25;;;14.30;;
28447;SDS011;15675;52.870;-1.416;2023-02-28T02:22:55;22.58;;;13.90;;
28447;SDS011;15675;52.870;-1.416;2023-02-28T02:36:10;24.45;;;14.30;;
28447;SDS011;15675;52.870;-1.416;2023-02-28T02:38:45;25.10;;;14.05;;
28447;SDS011;15675;52.870;-1.416;2023-02-28T02:41:28;31.45;;;15.93;;
28447;SDS011;15675;52.870;-1.416;2023-02-28T02:46:47;27.02;;;15.57;;
28447;SDS011;15675;52.870;-1.416;2023-02-28T02:49:20;29.20;;;14.82;;
28447;SDS011;15675;52.870;-1.416;2023-02-28T02:51:49;27.83;;;15.00;;
28447;SDS011;15675;52.870;-1.416;2023-02-28T02:54:26;23.45;;;14.20;;
28447;SDS011;15675;52.870;-1.416;2023-02-28T02:56:57;30.25;;;14.82;;
28447;SDS011;15675;52.870;-1.416;2023-02-28T02:59:26;29.60;;;14.30;;
28447;SDS011;15675;52.870;-1.416;2023-02-28T03:01:56;25.73;;;13.30;;
28447;SDS011;15675;52.870;-1.416;2023-02-28T03:04:24;22.35;;;12.60;;
28447;SDS011;15675;52.870;-1.416;2023-02-28T03:06:53;27.00;;;13.98;;
28447;SDS011;15675;52.870;-1.416;2023-02-28T03:09:23;21.17;;;12.60;;
28447;SDS011;15675;52.870;-1.416;2023-02-28T03:11:49;25.00;;;12.90;;
28447;SDS011;15675;52.870;-1.416;2023-02-28T03:17:06;25.83;;;14.13;;
28447;SDS011;15675;52.870;-1.416;2023-02-28T03:22:33;27.88;;;14.27;;
28447;SDS011;15675;52.870;-1.416;2023-02-28T03:25:28;28.92;;;15.10;;
28447;SDS011;15675;52.870;-1.416;2023-02-28T03:28:30;25.92;;;15.07;;
28447;SDS011;15675;52.870;-1.416;2023-02-28T03:31:46;30.08;;;15.18;;
28447;SDS011;15675;52.870;-1.416;2023-02-28T03:36:30;28.83;;;15.20;;
28447;SDS011;15675;52.870;-1.416;2023-02-28T03:39:05;27.13;;;15.30;;
28447;SDS011;15675;52.870;-1.416;2023-02-28T03:41:38;27.52;;;15.10;;
28447;SDS011;15675;52.870;-1.416;2023-02-28T03:44:13;28.88;;;16.20;;
28447;SDS011;15675;52.870;-1.416;2023-02-28T03:46:46;29.15;;;15.50;;
28447;SDS011;15675;52.870;-1.416;2023-02-28T03:49:19;30.30;;;16.33;;
28447;SDS011;15675;52.870;-1.416;2023-02-28T03:51:48;31.58;;;17.52;;
28447;SDS011;15675;52.870;-1.416;2023-02-28T03:54:17;30.27;;;17.33;;
28447;SDS011;15675;52.870;-1.416;2023-02-28T03:56:50;38.93;;;17.00;;
28447;SDS011;15675;52.870;-1.416;2023-02-28T04:01:48;40.42;;;18.60;;
28447;SDS011;15675;52.870;-1.416;2023-02-28T04:04:14;38.42;;;20.38;;
28447;SDS011;15675;52.870;-1.416;2023-02-28T04:06:42;35.13;;;19.35;;
28447;SDS011;15675;52.870;-1.416;2023-02-28T04:09:10;34.38;;;17.88;;
28447;SDS011;15675;52.870;-1.416;2023-02-28T04:11:38;37.65;;;19.90;;
28447;SDS011;15675;52.870;-1.416;2023-02-28T04:14:09;25.80;;;13.23;;
28447;SDS011;15675;52.870;-1.416;2023-02-28T04:16:37;35.65;;;17.23;;
28447;SDS011;15675;52.870;-1.416;2023-02-28T04:19:05;38.00;;;19.95;;
28447;SDS011;15675;52.870;-1.416;2023-02-28T04:21:33;35.13;;;18.10;;
28447;SDS011;15675;52.870;-1.416;2023-02-28T04:24:06;32.25;;;17.85;;
28447;SDS011;15675;52.870;-1.416;2023-02-28T04:26:39;35.50;;;18.33;;
28447;SDS011;15675;52.870;-1.416;2023-02-28T04:29:10;40.10;;;18.73;;
28447;SDS011;15675;52.870;-1.416;2023-02-28T04:31:37;33.63;;;17.95;;
28447;SDS011;15675;52.870;-1.416;2023-02-28T04:34:03;36.80;;;18.40;;
28447;SDS011;15675;52.870;-1.416;2023-02-28T04:36:29;36.13;;;17.50;;
28447;SDS011;15675;52.870;-1.416;2023-02-28T04:38:55;34.85;;;17.75;;
28447;SDS011;15675;52.870;-1.416;2023-02-28T04:41:21;37.42;;;18.38;;
28447;SDS011;15675;52.870;-1.416;2023-02-28T04:43:48;35.85;;;18.17;;
28447;SDS011;15675;52.870;-1.416;2023-02-28T04:46:14;34.60;;;18.52;;
28447;SDS011;15675;52.870;-1.416;2023-02-28T04:48:41;30.63;;;17.50;;
28447;SDS011;15675;52.870;-1.416;2023-02-28T04:51:10;34.67;;;17.98;;
28447;SDS011;15675;52.870;-1.416;2023-02-28T04:53:38;36.63;;;19.10;;
28447;SDS011;15675;52.870;-1.416;2023-02-28T04:56:04;33.75;;;17.85;;
28447;SDS011;15675;52.870;-1.416;2023-02-28T04:58:31;35.58;;;18.55;;
28447;SDS011;15675;52.870;-1.416;2023-02-28T05:01:04;32.53;;;17.65;;
28447;SDS011;15675;52.870;-1.416;2023-02-28T05:03:40;28.15;;;15.98;;
28447;SDS011;15675;52.870;-1.416;2023-02-28T05:06:07;38.88;;;18.70;;
28447;SDS011;15675;52.870;-1.416;2023-02-28T05:08:33;29.98;;;17.27;;
28447;SDS011;15675;52.870;-1.416;2023-02-28T05:10:59;38.15;;;19.10;;
28447;SDS011;15675;52.870;-1.416;2023-02-28T05:13:26;37.90;;;20.35;;
28447;SDS011;15675;52.870;-1.416;2023-02-28T05:15:53;35.28;;;18.98;;
28447;SDS011;15675;52.870;-1.416;2023-02-28T05:18:18;36.55;;;19.45;;
28447;SDS011;15675;52.870;-1.416;2023-02-28T05:20:44;34.50;;;19.52;;
28447;SDS011;15675;52.870;-1.416;2023-02-28T05:23:11;44.67;;;20.20;;
28447;SDS011;15675;52.870;-1.416;2023-02-28T05:25:38;39.05;;;20.20;;
28447;SDS011;15675;52.870;-1.416;2023-02-28T05:28:04;35.55;;;19.35;;
28447;SDS011;15675;52.870;-1.416;2023-02-28T05:30:30;35.42;;;19.67;;
28447;SDS011;15675;52.870;-1.416;2023-02-28T05:32:57;34.53;;;18.27;;
28447;SDS011;15675;52.870;-1.416;2023-02-28T05:35:22;31.50;;;17.85;;
28447;SDS011;15675;52.870;-1.416;2023-02-28T05:37:48;40.17;;;19.30;;
28447;SDS011;15675;52.870;-1.416;2023-02-28T05:40:14;32.65;;;17.73;;
28447;SDS011;15675;52.870;-1.416;2023-02-28T05:42:40;41.40;;;18.65;;
28447;SDS011;15675;52.870;-1.416;2023-02-28T05:45:07;37.65;;;19.95;;
28447;SDS011;15675;52.870;-1.416;2023-02-28T05:47:33;39.75;;;19.75;;
28447;SDS011;15675;52.870;-1.416;2023-02-28T05:49:59;33.10;;;19.23;;
28447;SDS011;15675;52.870;-1.416;2023-02-28T05:52:25;32.75;;;20.02;;
28447;SDS011;15675;52.870;-1.416;2023-02-28T05:54:51;31.52;;;17.48;;
28447;SDS011;15675;52.870;-1.416;2023-02-28T05:57:16;42.88;;;19.92;;
28447;SDS011;15675;52.870;-1.416;2023-02-28T05:59:42;34.00;;;16.60;;
28447;SDS011;15675;52.870;-1.416;2023-02-28T06:02:11;25.55;;;15.05;;
28447;SDS011;15675;52.870;-1.416;2023-02-28T06:04:38;31.15;;;16.65;;
28447;SDS011;15675;52.870;-1.416;2023-02-28T06:07:03;32.15;;;16.52;;
28447;SDS011;15675;52.870;-1.416;2023-02-28T06:09:29;21.83;;;12.57;;
28447;SDS011;15675;52.870;-1.416;2023-02-28T06:11:57;18.60;;;11.48;;
28447;SDS011;15675;52.870;-1.416;2023-02-28T06:14:23;17.38;;;10.88;;
28447;SDS011;15675;52.870;-1.416;2023-02-28T06:16:49;22.75;;;11.43;;
28447;SDS011;15675;52.870;-1.416;2023-02-28T06:19:14;20.95;;;11.57;;
28447;SDS011;15675;52.870;-1.416;2023-02-28T06:21:40;20.48;;;10.02;;
28447;SDS011;15675;52.870;-1.416;2023-02-28T06:24:06;19.40;;;11.13;;
28447;SDS011;15675;52.870;-1.416;2023-02-28T06:26:32;19.58;;;11.40;;
28447;SDS011;15675;52.870;-1.416;2023-02-28T06:28:58;23.00;;;11.68;;
28447;SDS011;15675;52.870;-1.416;2023-02-28T06:31:23;17.40;;;11.32;;
28447;SDS011;15675;52.870;-1.416;2023-02-28T06:33:51;23.27;;;12.60;;
28447;SDS011;15675;52.870;-1.416;2023-02-28T06:36:16;23.17;;;12.48;;
28447;SDS011;15675;52.870;-1.416;2023-02-28T06:38:43;24.05;;;12.15;;
28447;SDS011;15675;52.870;-1.416;2023-02-28T06:41:09;24.10;;;12.98;;
28447;SDS011;15675;52.870;-1.416;2023-02-28T06:43:37;22.45;;;12.65;;
28447;SDS011;15675;52.870;-1.416;2023-02-28T06:46:06;26.15;;;13.70;;
28447;SDS011;15675;52.870;-1.416;2023-02-28T06:48:33;28.75;;;14.07;;
28447;SDS011;15675;52.870;-1.416;2023-02-28T06:51:06;25.77;;;14.45;;
28447;SDS011;15675;52.870;-1.416;2023-02-28T06:53:34;24.45;;;13.43;;
28447;SDS011;15675;52.870;-1.416;2023-02-28T06:56:03;25.52;;;13.85;;
28447;SDS011;15675;52.870;-1.416;2023-02-28T06:58:33;27.35;;;13.80;;
28447;SDS011;15675;52.870;-1.416;2023-02-28T07:00:59;27.02;;;14.38;;
28447;SDS011;15675;52.870;-1.416;2023-02-28T07:03:25;25.88;;;12.73;;
28447;SDS011;15675;52.870;-1.416;2023-02-28T07:05:51;33.47;;;15.00;;
28447;SDS011;15675;52.870;-1.416;2023-02-28T07:08:16;27.33;;;14.95;;
28447;SDS011;15675;52.870;-1.416;2023-02-28T07:10:42;30.83;;;15.85;;
28447;SDS011;15675;52.870;-1.416;2023-02-28T07:13:08;32.20;;;14.98;;
28447;SDS011;15675;52.870;-1.416;2023-02-28T07:15:34;31.27;;;14.73;;
28447;SDS011;15675;52.870;-1.416;2023-02-28T07:18:00;32.40;;;14.90;;
28447;SDS011;15675;52.870;-1.416;2023-02-28T07:20:26;30.40;;;15.18;;
28447;SDS011;15675;52.870;-1.416;2023-02-28T07:22:52;27.88;;;14.43;;
28447;SDS011;15675;52.870;-1.416;2023-02-28T07:25:25;30.38;;;13.85;;
28447;SDS011;15675;52.870;-1.416;2023-02-28T07:27:51;27.58;;;14.95;;
28447;SDS011;15675;52.870;-1.416;2023-02-28T07:30:17;28.42;;;14.43;;
28447;SDS011;15675;52.870;-1.416;2023-02-28T07:32:43;28.60;;;14.40;;
28447;SDS011;15675;52.870;-1.416;2023-02-28T07:35:09;25.73;;;12.38;;
28447;SDS011;15675;52.870;-1.416;2023-02-28T07:37:34;23.08;;;11.88;;
28447;SDS011;15675;52.870;-1.416;2023-02-28T07:40:06;23.60;;;12.52;;
28447;SDS011;15675;52.870;-1.416;2023-02-28T07:42:35;21.00;;;11.63;;
28447;SDS011;15675;52.870;-1.416;2023-02-28T07:45:01;18.13;;;9.98;;
28447;SDS011;15675;52.870;-1.416;2023-02-28T07:47:30;20.35;;;10.13;;
28447;SDS011;15675;52.870;-1.416;2023-02-28T07:49:56;17.45;;;10.23;;
28447;SDS011;15675;52.870;-1.416;2023-02-28T07:52:22;20.77;;;10.25;;
28447;SDS011;15675;52.870;-1.416;2023-02-28T07:54:49;18.33;;;10.70;;
28447;SDS011;15675;52.870;-1.416;2023-02-28T07:57:17;16.70;;;9.38;;
28447;SDS011;15675;52.870;-1.416;2023-02-28T07:59:43;18.33;;;10.43;;
28447;SDS011;15675;52.870;-1.416;2023-02-28T08:02:13;16.70;;;9.57;;
28447;SDS011;15675;52.870;-1.416;2023-02-28T08:04:40;17.20;;;9.63;;
28447;SDS011;15675;52.870;-1.416;2023-02-28T08:07:06;14.73;;;8.85;;
28447;SDS011;15675;52.870;-1.416;2023-02-28T08:09:31;15.82;;;9.75;;
28447;SDS011;15675;52.870;-1.416;2023-02-28T08:11:57;15.90;;;8.75;;
28447;SDS011;15675;52.870;-1.416;2023-02-28T08:14:23;15.93;;;8.15;;
28447;SDS011;15675;52.870;-1.416;2023-02-28T08:16:48;17.48;;;8.82;;
28447;SDS011;15675;52.870;-1.416;2023-02-28T08:19:14;13.35;;;7.63;;
28447;SDS011;15675;52.870;-1.416;2023-02-28T08:21:39;11.88;;;7.10;;
28447;SDS011;15675;52.870;-1.416;2023-02-28T08:24:05;12.38;;;6.57;;
28447;SDS011;15675;52.870;-1.416;2023-02-28T08:26:31;12.57;;;6.88;;
28447;SDS011;15675;52.870;-1.416;2023-02-28T08:28:56;14.32;;;6.60;;
28447;SDS011;15675;52.870;-1.416;2023-02-28T08:31:22;15.23;;;7.35;;
28447;SDS011;15675;52.870;-1.416;2023-02-28T08:33:48;12.35;;;7.13;;
28447;SDS011;15675;52.870;-1.416;2023-02-28T08:36:16;13.38;;;7.45;;
28447;SDS011;15675;52.870;-1.416;2023-02-28T08:38:41;12.57;;;7.53;;
28447;SDS011;15675;52.870;-1.416;2023-02-28T08:41:08;9.80;;;6.63;;
28447;SDS011;15675;52.870;-1.416;2023-02-28T08:43:36;11.55;;;6.72;;
28447;SDS011;15675;52.870;-1.416;2023-02-28T08:46:03;12.00;;;7.47;;
28447;SDS011;15675;52.870;-1.416;2023-02-28T08:48:30;14.02;;;6.82;;
28447;SDS011;15675;52.870;-1.416;2023-02-28T08:50:58;11.52;;;6.75;;
28447;SDS011;15675;52.870;-1.416;2023-02-28T08:53:37;9.85;;;5.97;;
28447;SDS011;15675;52.870;-1.416;2023-02-28T08:56:08;14.05;;;6.53;;
28447;SDS011;15675;52.870;-1.416;2023-02-28T08:58:36;11.50;;;6.18;;
28447;SDS011;15675;52.870;-1.416;2023-02-28T09:01:07;13.50;;;6.78;;
28447;SDS011;15675;52.870;-1.416;2023-02-28T09:03:34;10.82;;;6.22;;
28447;SDS011;15675;52.870;-1.416;2023-02-28T09:06:00;11.48;;;6.80;;
28447;SDS011;15675;52.870;-1.416;2023-02-28T09:08:27;9.13;;;5.88;;
28447;SDS011;15675;52.870;-1.416;2023-02-28T09:10:53;10.48;;;5.72;;
28447;SDS011;15675;52.870;-1.416;2023-02-28T09:13:19;7.28;;;4.18;;
28447;SDS011;15675;52.870;-1.416;2023-02-28T09:15:45;11.32;;;5.68;;
28447;SDS011;15675;52.870;-1.416;2023-02-28T09:18:11;8.48;;;4.80;;
28447;SDS011;15675;52.870;-1.416;2023-02-28T09:20:38;12.30;;;6.05;;
28447;SDS011;15675;52.870;-1.416;2023-02-28T09:23:05;10.18;;;5.45;;
28447;SDS011;15675;52.870;-1.416;2023-02-28T09:25:31;9.73;;;5.30;;
28447;SDS011;15675;52.870;-1.416;2023-02-28T09:27:57;8.52;;;4.50;;
28447;SDS011;15675;52.870;-1.416;2023-02-28T09:30:23;9.82;;;6.15;;
28447;SDS011;15675;52.870;-1.416;2023-02-28T09:32:48;9.02;;;5.65;;
28447;SDS011;15675;52.870;-1.416;2023-02-28T09:35:18;6.35;;;4.07;;
28447;SDS011;15675;52.870;-1.416;2023-02-28T09:37:44;12.00;;;6.10;;
28447;SDS011;15675;52.870;-1.416;2023-02-28T09:40:10;8.80;;;5.10;;
28447;SDS011;15675;52.870;-1.416;2023-02-28T09:42:37;13.50;;;5.90;;
28447;SDS011;15675;52.870;-1.416;2023-02-28T09:45:06;13.30;;;6.20;;
28447;SDS011;15675;52.870;-1.416;2023-02-28T09:47:44;9.82;;;5.28;;
28447;SDS011;15675;52.870;-1.416;2023-02-28T09:52:48;11.00;;;7.20;;
28447;SDS011;15675;52.870;-1.416;2023-02-28T09:57:47;12.85;;;7.63;;
28447;SDS011;15675;52.870;-1.416;2023-02-28T10:05:42;13.57;;;8.00;;
28447;SDS011;15675;52.870;-1.416;2023-02-28T10:08:19;14.00;;;9.27;;
28447;SDS011;15675;52.870;-1.416;2023-02-28T10:10:51;12.25;;;7.38;;
28447;SDS011;15675;52.870;-1.416;2023-02-28T10:16:23;11.07;;;6.85;;
28447;SDS011;15675;52.870;-1.416;2023-02-28T10:19:02;16.70;;;7.55;;
28447;SDS011;15675;52.870;-1.416;2023-02-28T10:21:36;6.90;;;4.97;;
28447;SDS011;15675;52.870;-1.416;2023-02-28T10:24:13;12.55;;;6.95;;
28447;SDS011;15675;52.870;-1.416;2023-02-28T10:26:45;13.15;;;7.05;;
28447;SDS011;15675;52.870;-1.416;2023-02-28T10:29:12;11.73;;;7.15;;
28447;SDS011;15675;52.870;-1.416;2023-02-28T10:31:38;12.52;;;6.78;;
28447;SDS011;15675;52.870;-1.416;2023-02-28T10:34:05;13.68;;;7.28;;
28447;SDS011;15675;52.870;-1.416;2023-02-28T10:36:31;15.90;;;8.45;;
28447;SDS011;15675;52.870;-1.416;2023-02-28T10:38:57;18.42;;;8.63;;
28447;SDS011;15675;52.870;-1.416;2023-02-28T10:41:29;12.65;;;7.07;;
28447;SDS011;15675;52.870;-1.416;2023-02-28T10:46:57;10.98;;;6.95;;
28447;SDS011;15675;52.870;-1.416;2023-02-28T10:49:24;9.85;;;6.47;;
28447;SDS011;15675;52.870;-1.416;2023-02-28T10:51:53;8.32;;;5.57;;
28447;SDS011;15675;52.870;-1.416;2023-02-28T10:54:33;14.88;;;6.38;;
28447;SDS011;15675;52.870;-1.416;2023-02-28T10:57:17;9.48;;;5.38;;
28447;SDS011;15675;52.870;-1.416;2023-02-28T10:59:45;11.63;;;5.85;;
28447;SDS011;15675;52.870;-1.416;2023-02-28T11:02:29;9.40;;;6.05;;
28447;SDS011;15675;52.870;-1.416;2023-02-28T11:04:57;9.73;;;6.88;;
28447;SDS011;15675;52.870;-1.416;2023-02-28T11:07:23;11.00;;;6.18;;
28447;SDS011;15675;52.870;-1.416;2023-02-28T11:09:51;9.73;;;5.70;;
28447;SDS011;15675;52.870;-1.416;2023-02-28T11:12:20;9.02;;;5.65;;
28447;SDS011;15675;52.870;-1.416;2023-02-28T11:14:49;11.73;;;5.40;;
28447;SDS011;15675;52.870;-1.416;2023-02-28T11:17:22;8.77;;;5.53;;
28447;SDS011;15675;52.870;-1.416;2023-02-28T11:19:50;11.07;;;6.13;;
28447;SDS011;15675;52.870;-1.416;2023-02-28T11:22:28;9.10;;;5.20;;
28447;SDS011;15675;52.870;-1.416;2023-02-28T11:24:57;11.57;;;5.97;;
28447;SDS011;15675;52.870;-1.416;2023-02-28T11:29:56;9.68;;;6.25;;
28447;SDS011;15675;52.870;-1.416;2023-02-28T11:32:23;8.73;;;3.72;;
28447;SDS011;15675;52.870;-1.416;2023-02-28T11:35:10;7.90;;;4.90;;
28447;SDS011;15675;52.870;-1.416;2023-02-28T11:37:59;8.27;;;4.60;;
28447;SDS011;15675;52.870;-1.416;2023-02-28T11:40:30;6.10;;;4.55;;
28447;SDS011;15675;52.870;-1.416;2023-02-28T11:43:12;3.78;;;2.85;;
28447;SDS011;15675;52.870;-1.416;2023-02-28T11:51:21;3.90;;;2.13;;
28447;SDS011;15675;52.870;-1.416;2023-02-28T12:02:23;4.88;;;2.30;;
28447;SDS011;15675;52.870;-1.416;2023-02-28T12:05:08;2.70;;;2.25;;
28447;SDS011;15675;52.870;-1.416;2023-02-28T12:10:29;6.88;;;2.08;;
28447;SDS011;15675;52.870;-1.416;2023-02-28T12:21:35;4.85;;;2.75;;
28447;SDS011;15675;52.870;-1.416;2023-02-28T12:24:24;4.85;;;3.05;;
28447;SDS011;15675;52.870;-1.416;2023-02-28T12:26:54;6.55;;;3.13;;
28447;SDS011;15675;52.870;-1.416;2023-02-28T12:29:29;4.18;;;3.20;;
28447;SDS011;15675;52.870;-1.416;2023-02-28T12:32:03;5.88;;;2.60;;
28447;SDS011;15675;52.870;-1.416;2023-02-28T12:34:33;3.40;;;2.25;;
28447;SDS011;15675;52.870;-1.416;2023-02-28T12:37:07;4.15;;;2.78;;
28447;SDS011;15675;52.870;-1.416;2023-02-28T12:39:43;3.50;;;2.45;;
28447;SDS011;15675;52.870;-1.416;2023-02-28T12:42:13;4.20;;;2.40;;
28447;SDS011;15675;52.870;-1.416;2023-02-28T12:44:59;2.85;;;1.95;;
28447;SDS011;15675;52.870;-1.416;2023-02-28T12:47:27;3.00;;;1.80;;
28447;SDS011;15675;52.870;-1.416;2023-02-28T12:57:59;2.75;;;2.13;;
28447;SDS011;15675;52.870;-1.416;2023-02-28T13:00:34;6.35;;;1.80;;
28447;SDS011;15675;52.870;-1.416;2023-02-28T13:05:56;3.25;;;2.47;;
28447;SDS011;15675;52.870;-1.416;2023-02-28T13:09:03;2.28;;;1.90;;
28447;SDS011;15675;52.870;-1.416;2023-02-28T13:11:48;3.67;;;2.47;;
28447;SDS011;15675;52.870;-1.416;2023-02-28T13:16:55;3.33;;;1.90;;
28447;SDS011;15675;52.870;-1.416;2023-02-28T13:19:27;3.83;;;1.70;;
28447;SDS011;15675;52.870;-1.416;2023-02-28T13:21:56;3.08;;;2.28;;
28447;SDS011;15675;52.870;-1.416;2023-02-28T13:24:43;2.42;;;1.60;;
28447;SDS011;15675;52.870;-1.416;2023-02-28T13:29:36;4.43;;;2.25;;
28447;SDS011;15675;52.870;-1.416;2023-02-28T13:34:41;3.83;;;2.60;;
28447;SDS011;15675;52.870;-1.416;2023-02-28T13:37:32;2.45;;;1.63;;
28447;SDS011;15675;52.870;-1.416;2023-02-28T14:06:38;5.28;;;2.13;;
28447;SDS011;15675;52.870;-1.416;2023-02-28T14:11:38;4.95;;;2.83;;
28447;SDS011;15675;52.870;-1.416;2023-02-28T14:14:06;7.55;;;2.85;;
28447;SDS011;15675;52.870;-1.416;2023-02-28T14:21:50;3.65;;;2.22;;
28447;SDS011;15675;52.870;-1.416;2023-02-28T14:27:15;3.70;;;2.42;;
28447;SDS011;15675;52.870;-1.416;2023-02-28T14:32:18;3.30;;;2.63;;
28447;SDS011;15675;52.870;-1.416;2023-02-28T14:37:26;3.38;;;2.55;;
28447;SDS011;15675;52.870;-1.416;2023-02-28T14:39:56;5.53;;;3.33;;
28447;SDS011;15675;52.870;-1.416;2023-02-28T14:42:30;4.00;;;2.53;;
28447;SDS011;15675;52.870;-1.416;2023-02-28T14:45:02;8.60;;;2.78;;
28447;SDS011;15675;52.870;-1.416;2023-02-28T14:47:32;3.85;;;2.63;;
28447;SDS011;15675;52.870;-1.416;2023-02-28T14:50:00;3.03;;;2.20;;
28447;SDS011;15675;52.870;-1.416;2023-02-28T14:52:29;5.70;;;2.03;;
28447;SDS011;15675;52.870;-1.416;2023-02-28T14:55:05;5.40;;;3.00;;
28447;SDS011;15675;52.870;-1.416;2023-02-28T14:57:56;5.88;;;3.35;;
28447;SDS011;15675;52.870;-1.416;2023-02-28T15:00:27;4.75;;;2.85;;
28447;SDS011;15675;52.870;-1.416;2023-02-28T15:02:55;6.15;;;2.90;;
28447;SDS011;15675;52.870;-1.416;2023-02-28T15:05:32;3.80;;;2.88;;
28447;SDS011;15675;52.870;-1.416;2023-02-28T15:10:39;4.80;;;2.90;;
28447;SDS011;15675;52.870;-1.416;2023-02-28T15:13:10;3.67;;;2.78;;
28447;SDS011;15675;52.870;-1.416;2023-02-28T15:18:19;3.30;;;2.70;;
28447;SDS011;15675;52.870;-1.416;2023-02-28T15:20:50;6.65;;;3.22;;
28447;SDS011;15675;52.870;-1.416;2023-02-28T15:23:17;5.25;;;2.17;;
28447;SDS011;15675;52.870;-1.416;2023-02-28T15:25:45;4.05;;;2.42;;
28447;SDS011;15675;52.870;-1.416;2023-02-28T15:28:16;4.43;;;3.17;;
28447;SDS011;15675;52.870;-1.416;2023-02-28T15:33:24;4.18;;;2.65;;
28447;SDS011;15675;52.870;-1.416;2023-02-28T15:36:03;3.80;;;2.83;;
28447;SDS011;15675;52.870;-1.416;2023-02-28T15:38:37;4.60;;;3.90;;
28447;SDS011;15675;52.870;-1.416;2023-02-28T15:41:02;4.05;;;3.45;;
28447;SDS011;15675;52.870;-1.416;2023-02-28T15:46:12;6.88;;;3.50;;
28447;SDS011;15675;52.870;-1.416;2023-02-28T15:51:19;3.28;;;2.50;;
28447;SDS011;15675;52.870;-1.416;2023-02-28T15:53:48;7.63;;;6.35;;
28447;SDS011;15675;52.870;-1.416;2023-02-28T15:56:31;8.95;;;4.05;;
28447;SDS011;15675;52.870;-1.416;2023-02-28T15:59:05;2.78;;;1.52;;
28447;SDS011;15675;52.870;-1.416;2023-02-28T16:01:34;3.08;;;1.38;;
28447;SDS011;15675;52.870;-1.416;2023-02-28T16:06:43;2.80;;;1.40;;
28447;SDS011;15675;52.870;-1.416;2023-02-28T16:09:14;4.20;;;2.08;;
28447;SDS011;15675;52.870;-1.416;2023-02-28T16:11:43;4.47;;;2.22;;
28447;SDS011;15675;52.870;-1.416;2023-02-28T16:14:14;3.25;;;2.55;;
28447;SDS011;15675;52.870;-1.416;2023-02-28T16:16:42;3.58;;;1.83;;
28447;SDS011;15675;52.870;-1.416;2023-02-28T16:19:13;4.63;;;2.20;;
28447;SDS011;15675;52.870;-1.416;2023-02-28T16:21:39;3.13;;;1.98;;
28447;SDS011;15675;52.870;-1.416;2023-02-28T16:24:05;3.97;;;1.95;;
28447;SDS011;15675;52.870;-1.416;2023-02-28T16:26:31;3.25;;;1.90;;
28447;SDS011;15675;52.870;-1.416;2023-02-28T16:28:59;4.15;;;2.10;;
28447;SDS011;15675;52.870;-1.416;2023-02-28T16:31:27;3.97;;;1.77;;
28447;SDS011;15675;52.870;-1.416;2023-02-28T16:33:53;7.90;;;2.13;;
28447;SDS011;15675;52.870;-1.416;2023-02-28T16:36:20;3.28;;;1.85;;
28447;SDS011;15675;52.870;-1.416;2023-02-28T16:38:50;3.33;;;2.00;;
28447;SDS011;15675;52.870;-1.416;2023-02-28T16:41:20;4.32;;;2.30;;
28447;SDS011;15675;52.870;-1.416;2023-02-28T16:43:48;4.60;;;1.80;;
28447;SDS011;15675;52.870;-1.416;2023-02-28T16:46:16;5.05;;;3.13;;
28447;SDS011;15675;52.870;-1.416;2023-02-28T16:48:43;7.88;;;3.17;;
28447;SDS011;15675;52.870;-1.416;2023-02-28T16:51:13;5.10;;;3.40;;
28447;SDS011;15675;52.870;-1.416;2023-02-28T16:53:40;5.72;;;3.40;;
28447;SDS011;15675;52.870;-1.416;2023-02-28T16:56:09;7.28;;;2.60;;
28447;SDS011;15675;52.870;-1.416;2023-02-28T16:58:40;11.23;;;2.80;;
28447;SDS011;15675;52.870;-1.416;2023-02-28T17:01:06;3.63;;;3.03;;
28447;SDS011;15675;52.870;-1.416;2023-02-28T17:03:31;3.85;;;2.03;;